createdAt,value
2017-09-29T00:01:58.011Z,101843.73
2017-09-29T00:07:01.259Z,101847.92
2017-09-29T00:12:04.228Z,101847.77
2017-09-29T00:17:06.904Z,101849.07
2017-09-29T00:22:09.542Z,101854.23
2017-09-29T00:27:12.239Z,101851.33
2017-09-29T00:32:15.689Z,101845.00
2017-09-29T00:37:18.410Z,101843.95
2017-09-29T00:42:20.503Z,101835.38
2017-09-29T00:47:23.230Z,101832.44
2017-09-29T00:52:25.812Z,101828.91
2017-09-29T00:57:28.551Z,101811.35
2017-09-29T01:02:31.266Z,101830.54
2017-09-29T01:07:34.027Z,101832.22
2017-09-29T01:12:36.112Z,101824.80
2017-09-29T01:17:38.854Z,101823.58
2017-09-29T01:22:41.670Z,101816.79
2017-09-29T01:27:44.175Z,101821.80
2017-09-29T01:32:46.805Z,101825.02
2017-09-29T01:37:49.483Z,101823.03
2017-09-29T01:42:52.299Z,101817.37
2017-09-29T01:47:55.151Z,101817.08
2017-09-29T01:52:57.897Z,101815.54
2017-09-29T01:58:00.669Z,101809.16
2017-09-29T02:03:03.442Z,101803.89
2017-09-29T02:08:06.328Z,101800.88
2017-09-29T02:13:09.830Z,101804.69
2017-09-29T02:18:12.699Z,101799.63
2017-09-29T02:23:15.906Z,101801.83
2017-09-29T02:28:18.586Z,101800.41
2017-09-29T02:33:21.358Z,101798.28
2017-09-29T02:38:23.710Z,101799.66
2017-09-29T02:43:26.218Z,101798.12
2017-09-29T02:48:29.437Z,101789.65
2017-09-29T02:53:31.813Z,101784.76
2017-09-29T02:58:37.473Z,101792.80
2017-09-29T03:03:41.307Z,101792.27
2017-09-29T03:08:44.156Z,101801.94
2017-09-29T03:13:46.583Z,101795.15
2017-09-29T03:18:49.087Z,101789.03
2017-09-29T03:23:51.424Z,101784.12
2017-09-29T03:28:54.944Z,101774.63
2017-09-29T03:34:02.059Z,101778.75
2017-09-29T03:39:05.070Z,101771.36
2017-09-29T03:44:09.460Z,101765.05
2017-09-29T03:49:12.011Z,101759.29
2017-09-29T03:54:18.418Z,101766.77
2017-09-29T03:59:22.902Z,101757.58
2017-09-29T04:04:25.243Z,101764.06
2017-09-29T04:09:27.979Z,101760.31
2017-09-29T04:14:30.330Z,101751.28
2017-09-29T04:19:33.791Z,101747.42
2017-09-29T04:24:41.601Z,101748.28
2017-09-29T04:29:49.218Z,101749.97
2017-09-29T04:34:55.450Z,101748.58
2017-09-29T04:40:00.542Z,101741.29
2017-09-29T04:45:02.756Z,101751.02
2017-09-29T04:50:05.310Z,101742.22
2017-09-29T04:55:07.575Z,101749.63
2017-09-29T05:00:10.167Z,101746.56
2017-09-29T05:05:12.909Z,101752.78
2017-09-29T05:10:15.449Z,101756.58
2017-09-29T05:15:17.975Z,101760.39
2017-09-29T05:20:21.389Z,101755.03
2017-09-29T05:25:24.039Z,101756.63
2017-09-29T05:30:26.457Z,101764.16
2017-09-29T05:35:29.469Z,101766.53
2017-09-29T05:40:32.023Z,101746.14
2017-09-29T05:45:34.935Z,101791.55
2017-09-29T05:50:37.536Z,101785.28
2017-09-29T05:55:40.818Z,101784.06
2017-09-29T06:00:43.132Z,101783.23
2017-09-29T06:05:45.765Z,101783.88
2017-09-29T06:10:48.383Z,101781.78
2017-09-29T06:15:50.710Z,101780.23
2017-09-29T06:20:52.980Z,101783.67
2017-09-29T06:25:55.684Z,101751.81
2017-09-29T06:30:59.129Z,101792.44
2017-09-29T06:36:01.660Z,101787.30
2017-09-29T06:41:04.360Z,101790.16
2017-09-29T06:46:07.148Z,101790.31
2017-09-29T06:51:10.437Z,101792.22
2017-09-29T06:56:13.008Z,101792.35
2017-09-29T07:01:15.660Z,101792.16
2017-09-29T07:06:18.811Z,101781.44
2017-09-29T07:11:21.521Z,101783.25
2017-09-29T07:16:23.819Z,101777.35
2017-09-29T07:21:26.317Z,101779.61
2017-09-29T07:26:35.505Z,101785.77
2017-09-29T07:31:40.238Z,101793.60
2017-09-29T07:36:43.217Z,101781.61
2017-09-29T07:41:45.722Z,101781.91
2017-09-29T07:46:48.499Z,101783.22
2017-09-29T07:51:53.759Z,101784.95
2017-09-29T07:56:56.483Z,101781.54
2017-09-29T08:01:59.339Z,101788.59
2017-09-29T08:07:01.939Z,101793.31
2017-09-29T08:12:05.270Z,101787.53
2017-09-29T08:17:07.978Z,101788.34
2017-09-29T08:22:10.569Z,101783.81
2017-09-29T08:27:13.186Z,101780.31
2017-09-29T08:32:15.636Z,101781.02
2017-09-29T08:37:18.320Z,101777.44
2017-09-29T08:42:21.013Z,101773.77
2017-09-29T08:47:23.426Z,101769.52
2017-09-29T08:52:26.860Z,101764.81
2017-09-29T08:57:29.500Z,101771.03
2017-09-29T09:02:32.111Z,101772.02
2017-09-29T09:07:34.635Z,101767.09
2017-09-29T09:12:37.200Z,101764.72
2017-09-29T09:17:39.791Z,101759.05
2017-09-29T09:22:42.369Z,101752.72
2017-09-29T09:27:44.935Z,101740.50
2017-09-29T09:32:48.279Z,101744.25
2017-09-29T09:37:51.023Z,101741.67
2017-09-29T09:42:53.606Z,101748.20
2017-09-29T09:47:56.105Z,101747.34
2017-09-29T09:52:59.388Z,101735.80
2017-09-29T09:58:02.052Z,101734.59
2017-09-29T10:03:04.340Z,101723.81
2017-09-29T10:08:06.922Z,101732.01
2017-09-29T10:13:09.462Z,101723.71
2017-09-29T10:18:11.689Z,101713.59
2017-09-29T10:23:14.242Z,101711.17
2017-09-29T10:28:17.612Z,101704.94
2017-09-29T10:33:20.231Z,101705.16
2017-09-29T10:38:23.325Z,101696.72
2017-09-29T10:43:26.538Z,101696.17
2017-09-29T10:48:29.458Z,101686.38
2017-09-29T10:53:31.962Z,101678.38
2017-09-29T10:58:34.614Z,101676.15
2017-09-29T11:03:38.064Z,101672.06
2017-09-29T11:08:40.592Z,101667.09
2017-09-29T11:13:43.323Z,101670.44
2017-09-29T11:18:45.945Z,101661.82
2017-09-29T11:23:49.641Z,101651.22
2017-09-29T11:28:51.994Z,101644.33
2017-09-29T11:33:55.641Z,101650.30
2017-09-29T11:38:58.887Z,101637.06
2017-09-29T11:44:02.047Z,101638.62
2017-09-29T11:49:04.934Z,101634.86
2017-09-29T11:54:08.339Z,101623.63
2017-09-29T11:59:11.777Z,101622.14
2017-09-29T12:04:14.068Z,101614.66
2017-09-29T12:09:20.247Z,101607.16
2017-09-29T12:14:25.752Z,101612.77
2017-09-29T12:19:28.383Z,101617.96
2017-09-29T12:24:30.971Z,101612.20
2017-09-29T12:29:33.448Z,101600.48
2017-09-29T12:34:36.100Z,101596.03
2017-09-29T12:39:40.109Z,101587.22
2017-09-29T12:44:42.792Z,101579.77
2017-09-29T12:49:45.125Z,101578.96
2017-09-29T12:54:47.618Z,101580.30
2017-09-29T12:59:50.002Z,101575.59
2017-09-29T13:04:53.676Z,101580.64
2017-09-29T13:09:56.382Z,101582.57
2017-09-29T13:14:58.982Z,101583.15
2017-09-29T13:20:01.786Z,101581.77
2017-09-29T13:25:23.680Z,101581.45
2017-09-29T13:30:26.285Z,101583.20
2017-09-29T13:35:28.952Z,101584.21
2017-09-29T13:40:31.705Z,101583.50
2017-09-29T13:45:34.187Z,101582.41
2017-09-29T13:50:36.747Z,101581.27
2017-09-29T13:55:39.372Z,101577.59
2017-09-29T14:00:42.068Z,101571.91
2017-09-29T14:05:44.559Z,101575.71
2017-09-29T14:10:47.014Z,101569.78
2017-09-29T14:15:49.648Z,101573.14
2017-09-29T14:20:51.689Z,101575.59
2017-09-29T14:25:54.002Z,101572.85
2017-09-29T14:30:56.548Z,101565.13
2017-09-29T14:36:00.217Z,101560.23
2017-09-29T14:41:09.387Z,101569.53
2017-09-29T14:46:12.459Z,101556.02
2017-09-29T14:51:15.121Z,101554.32
2017-09-29T14:56:17.484Z,101548.62
2017-09-29T15:01:20.121Z,101546.63
2017-09-29T15:06:23.494Z,101542.56
2017-09-29T15:11:26.954Z,101547.94
2017-09-29T15:16:29.605Z,101541.44
2017-09-29T15:21:31.806Z,101534.97
2017-09-29T15:26:34.074Z,101530.16
2017-09-29T15:31:36.440Z,101528.53
2017-09-29T15:36:39.658Z,101529.47
2017-09-29T15:41:44.131Z,101527.58
2017-09-29T15:46:46.255Z,101524.14
2017-09-29T15:51:48.924Z,101523.61
2017-09-29T15:56:51.092Z,101522.95
2017-09-29T16:01:54.472Z,101520.59
2017-09-29T16:06:57.327Z,101518.31
2017-09-29T16:12:00.637Z,101509.39
2017-09-29T16:17:03.284Z,101509.78
2017-09-29T16:22:07.123Z,101503.92
2017-09-29T16:27:09.469Z,101503.36
2017-09-29T16:32:12.110Z,101500.68
2017-09-29T16:37:14.365Z,101500.16
2017-09-29T16:42:17.004Z,101496.38
2017-09-29T16:47:19.482Z,101501.60
2017-09-29T16:52:22.133Z,101494.55
2017-09-29T16:57:25.596Z,101494.55
2017-09-29T17:02:31.039Z,101490.02
2017-09-29T17:07:35.235Z,101489.39
2017-09-29T17:12:39.897Z,101487.41
2017-09-29T17:17:43.467Z,101490.31
2017-09-29T17:22:46.009Z,101486.52
2017-09-29T17:27:50.061Z,101476.05
2017-09-29T17:32:52.482Z,101474.52
2017-09-29T17:37:55.125Z,101474.64
2017-09-29T17:42:57.858Z,101474.55
2017-09-29T17:48:00.461Z,101472.66
2017-09-29T17:53:03.042Z,101468.11
2017-09-29T17:58:05.708Z,101462.48
2017-09-29T18:03:08.338Z,101460.24
2017-09-29T18:08:11.499Z,101452.91
2017-09-29T18:13:13.908Z,101453.82
2017-09-29T18:18:16.001Z,101453.59
2017-09-29T18:23:19.297Z,101458.50
2017-09-29T18:28:21.978Z,101459.99
2017-09-29T18:33:24.459Z,101454.91
2017-09-29T18:38:27.380Z,101448.62
2017-09-29T18:43:35.464Z,101447.02
2017-09-29T18:48:38.773Z,101446.32
2017-09-29T18:53:41.422Z,101445.31
2017-09-29T18:58:47.991Z,101449.81
2017-09-29T19:03:53.856Z,101454.67
2017-09-29T19:08:57.894Z,101451.38
2017-09-29T19:14:03.056Z,101448.20
2017-09-29T19:19:07.686Z,101448.40
2017-09-29T19:24:13.080Z,101441.52
2017-09-29T19:29:17.126Z,101443.67
2017-09-29T19:34:22.747Z,101441.28
2017-09-29T19:39:28.509Z,101449.48
2017-09-29T19:44:34.484Z,101442.47
2017-09-29T19:49:38.788Z,101450.13
2017-09-29T19:54:41.588Z,101449.28
2017-09-29T19:59:44.987Z,101434.38
2017-09-29T20:04:48.874Z,101438.61
2017-09-29T20:09:56.786Z,101433.74
2017-09-29T20:15:02.757Z,101434.08
2017-09-29T20:20:06.222Z,101427.86
2017-09-29T20:25:11.104Z,101425.40
2017-09-29T20:30:18.568Z,101422.34
2017-09-29T20:35:26.804Z,101416.33
2017-09-29T20:40:33.108Z,101404.86
2017-09-29T20:45:37.733Z,101405.46
2017-09-29T20:50:41.830Z,101407.32
2017-09-29T20:55:46.184Z,101404.56
2017-09-29T21:00:50.703Z,101401.14
2017-09-29T21:05:54.508Z,101397.81
2017-09-29T21:11:01.472Z,101391.34
2017-09-29T21:16:09.331Z,101384.30
2017-09-29T21:21:15.262Z,101378.88
2017-09-29T21:26:24.409Z,101370.56
2017-09-29T21:31:30.871Z,101364.25
2017-09-29T21:36:36.889Z,101358.16
2017-09-29T21:41:44.337Z,101356.59
2017-09-29T21:46:51.697Z,101341.80
2017-09-29T21:51:55.305Z,101339.96
2017-09-29T21:57:01.357Z,101336.86
2017-09-29T22:02:07.905Z,101333.81
2017-09-29T22:07:12.411Z,101323.50
2017-09-29T22:12:16.449Z,101323.77
2017-09-29T22:17:23.480Z,101325.09
2017-09-29T22:22:27.760Z,101325.45
2017-09-29T22:27:34.437Z,101320.06
2017-09-29T22:32:43.209Z,101308.48
2017-09-29T22:37:47.363Z,101306.61
2017-09-29T22:42:56.606Z,101305.41
2017-09-29T22:48:06.392Z,101302.35
2017-09-29T22:53:09.566Z,101296.05
2017-09-29T22:58:17.592Z,101290.61
2017-09-29T23:03:26.651Z,101289.12
2017-09-29T23:08:30.344Z,101284.28
2017-09-29T23:13:33.523Z,101277.66
2017-09-29T23:18:40.804Z,101275.25
2017-09-29T23:23:44.089Z,101280.63
2017-09-29T23:28:50.813Z,101271.04
2017-09-29T23:33:57.160Z,101273.81
2017-09-29T23:39:05.326Z,101272.03
2017-09-29T23:44:08.492Z,101276.67
2017-09-29T23:49:15.045Z,101270.84
2017-09-29T23:54:23.803Z,101283.40
2017-09-29T23:59:28.708Z,101289.52
